createdAt,value
2018-10-16T00:13:36.716Z,49.80
2018-10-16T00:26:44.141Z,49.90
2018-10-16T00:39:51.597Z,49.90
2018-10-16T01:32:11.469Z,50.30
2018-10-16T02:11:28.479Z,50.40
2018-10-16T02:24:35.901Z,50.50
2018-10-16T02:37:43.310Z,50.50
2018-10-16T02:50:50.725Z,50.50
2018-10-16T03:30:03.223Z,50.60
2018-10-16T03:43:10.668Z,50.60
2018-10-16T03:56:18.116Z,50.60
2018-10-16T04:09:25.541Z,50.60
2018-10-16T04:22:32.879Z,50.70
2018-10-16T04:35:40.165Z,50.70
2018-10-16T04:48:47.447Z,50.70
2018-10-16T05:01:54.818Z,50.70
2018-10-16T05:15:02.116Z,50.70
2018-10-16T05:28:09.457Z,50.80
2018-10-16T05:41:16.749Z,50.00
2018-10-16T05:54:24.088Z,46.80
2018-10-16T06:07:31.494Z,48.70
2018-10-16T06:20:38.918Z,48.90
2018-10-16T06:33:46.208Z,48.90
2018-10-16T06:46:53.490Z,48.90
2018-10-16T07:00:00.839Z,49.10
2018-10-16T07:13:08.111Z,48.90
2018-10-16T07:26:15.406Z,49.10
2018-10-16T07:39:22.682Z,49.00
2018-10-16T08:05:32.531Z,48.70
2018-10-16T08:31:42.260Z,47.60
2018-10-16T08:44:49.669Z,47.60
2018-10-16T08:57:57.073Z,47.60
2018-10-16T09:11:04.405Z,48.50
2018-10-16T09:24:11.720Z,48.00
2018-10-16T09:37:19.039Z,48.40
2018-10-16T09:50:26.394Z,48.60
2018-10-16T10:03:33.695Z,48.70
2018-10-16T10:16:40.974Z,48.80
2018-10-16T10:42:50.671Z,49.60
2018-10-16T10:55:57.954Z,49.90
2018-10-16T12:01:20.024Z,50.80
2018-10-16T12:14:27.313Z,50.80
2018-10-16T12:27:34.660Z,50.90
2018-10-16T12:40:41.973Z,50.90
2018-10-16T13:06:52.241Z,51.50
2018-10-16T13:19:59.590Z,52.00
2018-10-16T13:33:06.859Z,52.00
2018-10-16T13:46:14.358Z,52.00
2018-10-16T13:59:21.581Z,52.00
2018-10-16T14:12:28.927Z,52.00
2018-10-16T14:25:36.221Z,52.20
2018-10-16T14:38:43.541Z,52.20
2018-10-16T14:51:50.876Z,52.40
2018-10-16T15:04:58.191Z,52.50
2018-10-16T15:18:05.623Z,52.40
2018-10-16T15:31:13.005Z,53.10
2018-10-16T15:57:23.044Z,53.40
2018-10-16T16:10:30.412Z,53.30
2018-10-16T16:23:37.822Z,53.90
2018-10-16T16:36:45.289Z,54.10
2018-10-16T16:49:52.825Z,53.80
2018-10-16T17:03:00.255Z,54.30
2018-10-16T17:16:07.730Z,54.40
2018-10-16T17:29:15.072Z,54.40
2018-10-16T17:42:23.476Z,54.20
2018-10-16T17:55:30.880Z,54.20
2018-10-16T18:08:38.260Z,54.00
2018-10-16T18:21:45.670Z,54.70
2018-10-16T18:34:53.035Z,54.30
2018-10-16T18:48:00.459Z,54.20
2018-10-16T19:01:07.845Z,54.10
2018-10-16T19:27:18.297Z,53.90
2018-10-16T19:53:28.028Z,53.90
2018-10-16T20:06:35.441Z,53.70
2018-10-16T20:19:42.854Z,53.80
2018-10-16T20:32:50.300Z,53.80
2018-10-16T20:45:57.678Z,53.80
2018-10-16T20:59:05.076Z,53.70
2018-10-16T21:12:12.435Z,53.70
2018-10-16T21:25:19.772Z,53.80
2018-10-16T21:38:27.755Z,53.80
2018-10-16T21:51:35.051Z,53.80
2018-10-16T22:04:42.308Z,53.80
2018-10-16T22:17:49.556Z,53.90
2018-10-16T22:30:56.848Z,53.90
2018-10-16T22:44:04.157Z,53.80
2018-10-16T22:57:11.415Z,53.90
2018-10-16T23:10:18.682Z,53.90
2018-10-16T23:23:25.940Z,53.90
2018-10-16T23:36:33.239Z,54.10
2018-10-16T23:49:40.522Z,54.10
